LTFJ Airport Information

Runway Information
Runway 06 Length 9843 ft width 148 ft
Elevation 293 ft Threshold 0 ft Heading 64
Runway 24 Length 9843 ft Width 148 ft
Elevation 304 ft Threshold 0 ft Heading 244
Airport Frequencies
Type ATIS Name ATIS Frequency 128.55 MHZ
Type GND Name GND Frequency 121.75 MHZ
Type TWR Name TWR Frequency 37.877 MHZ
Type TWR Name TWR Frequency 118.8 MHZ
Airport Navaids
Type NDB Name Sabiha Gokcen Frequency 347 KHZ
Type VOR-DME Name Sabiha Gokcen Frequency 108800 KHZ
Airport Weather Information & NOTAM
ADDS - METARS form results

(1448 UTC 19 January 2019)
Data provider http://aviationweather.gov/metar/data/
 
METAR text: LTFJ 191420Z 04009KT 9999 SCT037 BKN070 10/07 Q1020 NOSIG RMK RWY24 02005KT
Conditions at: LTFJ (SABIHA GOKCEN , TR) observed 1420 UTC 19 January 2019
Temperature: 10.0°C (50°F)
Dewpoint: 7.0°C (45°F) [RH = 82%]
Pressure (altimeter): 30.12 inches Hg (1020.0 mb)
Winds: from the NE (40 degrees) at 10 MPH (9 knots; 4.6 m/s)
Visibility: 6 or more miles (10+ km)
Ceiling: 7000 feet AGL
Clouds: scattered clouds at 3700 feet AGL
broken clouds at 7000 feet AGL
Weather: no significant weather observed at this time

METAR text: LTFJ 191350Z VRB03KT 9999 SCT033 BKN070 12/05 Q1020 NOSIG RMK RWY24 02007KT 340V050
Conditions at: LTFJ (SABIHA GOKCEN , TR) observed 1350 UTC 19 January 2019
Temperature: 12.0°C (54°F)
Dewpoint: 5.0°C (41°F) [RH = 62%]
Pressure (altimeter): 30.12 inches Hg (1020.0 mb)
Winds: variable direction winds at 3 MPH (3 knots; 1.5 m/s)
Visibility: 6 or more miles (10+ km)
Ceiling: 7000 feet AGL
Clouds: scattered clouds at 3300 feet AGL
broken clouds at 7000 feet AGL
Weather: no significant weather observed at this time

Forecast for: LTFJ (SABIHA GOKCEN , TR)
Text: TAF LTFJ 191040Z 1912/2012 VRB02KT 9999 SCT040 BKN180
Forecast period: 1200 UTC 19 January 2019 to 1200 UTC 20 January 2019
Forecast type: FROM: standard forecast or significant change
Winds: variable direction winds at 2 MPH (2 knots; 1.0 m/s)
Visibility: 6 or more miles 10+ km)
Ceiling: 18000 feet AGL
Clouds: scattered clouds at 4000 feet AGL
broken clouds at 18000 feet AGL
Weather: no significant weather forecast for this period
Text: PROB30
Forecast period: 1700 to 2000 UTC 19 January 2019
Forecast type: TEMPORARY: The following changes expected for less than half the time period
Visibility: missing
Ceiling: 3500 feet AGL
Clouds: broken clouds at 3500 feet AGL
Weather: -SHRA  (light rain showers)
Text: TEMPO 1917/1920 -SHRA BKN035
Forecast period: 0000 to 0400 UTC 20 January 2019
Forecast type: TEMPORARY: The following changes expected for less than half the time period
Visibility: missing
Ceiling: 3500 feet AGL
Clouds: broken clouds at 3500 feet AGL
broken clouds at 9000 feet AGL
Weather: -SHRA  (light rain showers)